sensor_id;sensor_type;location;lat;lon;timestamp;temperature;humidity
59162;DHT22;44942;48.936;8.260;2023-09-08T00:01:15;24.40;56.90
59162;DHT22;44942;48.936;8.260;2023-09-08T00:06:15;24.40;57.00
59162;DHT22;44942;48.936;8.260;2023-09-08T00:11:16;24.30;57.00
59162;DHT22;44942;48.936;8.260;2023-09-08T00:16:17;24.20;57.20
59162;DHT22;44942;48.936;8.260;2023-09-08T00:21:18;24.10;57.30
59162;DHT22;44942;48.936;8.260;2023-09-08T00:26:18;24.10;57.30
59162;DHT22;44942;48.936;8.260;2023-09-08T00:31:19;24.10;57.40
59162;DHT22;44942;48.936;8.260;2023-09-08T00:36:19;24.00;57.50
59162;DHT22;44942;48.936;8.260;2023-09-08T00:41:20;23.90;57.40
59162;DHT22;44942;48.936;8.260;2023-09-08T00:46:20;23.80;57.60
59162;DHT22;44942;48.936;8.260;2023-09-08T00:51:21;23.80;57.70
59162;DHT22;44942;48.936;8.260;2023-09-08T00:56:22;23.70;57.60
59162;DHT22;44942;48.936;8.260;2023-09-08T01:01:23;23.70;57.80
59162;DHT22;44942;48.936;8.260;2023-09-08T01:06:23;23.60;57.80
59162;DHT22;44942;48.936;8.260;2023-09-08T01:11:24;23.60;58.00
59162;DHT22;44942;48.936;8.260;2023-09-08T01:16:25;23.50;58.10
59162;DHT22;44942;48.936;8.260;2023-09-08T01:26:27;23.50;58.10
59162;DHT22;44942;48.936;8.260;2023-09-08T01:31:30;23.40;58.10
59162;DHT22;44942;48.936;8.260;2023-09-08T01:36:30;23.40;58.20
59162;DHT22;44942;48.936;8.260;2023-09-08T01:41:31;23.30;58.20
59162;DHT22;44942;48.936;8.260;2023-09-08T01:46:32;23.30;58.20
59162;DHT22;44942;48.936;8.260;2023-09-08T01:51:33;23.30;58.30
59162;DHT22;44942;48.936;8.260;2023-09-08T01:56:33;23.20;58.40
59162;DHT22;44942;48.936;8.260;2023-09-08T02:01:33;23.10;58.40
59162;DHT22;44942;48.936;8.260;2023-09-08T02:06:34;23.10;58.40
59162;DHT22;44942;48.936;8.260;2023-09-08T02:11:34;23.10;58.40
59162;DHT22;44942;48.936;8.260;2023-09-08T02:16:35;23.00;58.50
59162;DHT22;44942;48.936;8.260;2023-09-08T02:21:35;23.10;58.50
59162;DHT22;44942;48.936;8.260;2023-09-08T02:26:37;23.00;58.40
59162;DHT22;44942;48.936;8.260;2023-09-08T02:31:38;23.00;58.50
59162;DHT22;44942;48.936;8.260;2023-09-08T02:36:39;22.90;58.70
59162;DHT22;44942;48.936;8.260;2023-09-08T02:41:39;22.80;58.50
59162;DHT22;44942;48.936;8.260;2023-09-08T02:46:40;22.80;58.60
59162;DHT22;44942;48.936;8.260;2023-09-08T02:51:40;22.70;58.70
59162;DHT22;44942;48.936;8.260;2023-09-08T02:56:40;22.70;58.60
59162;DHT22;44942;48.936;8.260;2023-09-08T03:01:41;22.60;58.60
59162;DHT22;44942;48.936;8.260;2023-09-08T03:06:41;22.60;58.70
59162;DHT22;44942;48.936;8.260;2023-09-08T03:11:42;22.50;58.80
59162;DHT22;44942;48.936;8.260;2023-09-08T03:16:43;22.40;58.90
59162;DHT22;44942;48.936;8.260;2023-09-08T03:21:43;22.40;58.90
59162;DHT22;44942;48.936;8.260;2023-09-08T03:26:43;22.40;58.90
59162;DHT22;44942;48.936;8.260;2023-09-08T03:31:44;22.40;59.00
59162;DHT22;44942;48.936;8.260;2023-09-08T03:36:44;22.40;59.00
59162;DHT22;44942;48.936;8.260;2023-09-08T03:41:45;22.40;59.10
59162;DHT22;44942;48.936;8.260;2023-09-08T03:46:46;22.30;59.10
59162;DHT22;44942;48.936;8.260;2023-09-08T03:51:46;22.20;59.10
59162;DHT22;44942;48.936;8.260;2023-09-08T03:56:47;22.10;59.10
59162;DHT22;44942;48.936;8.260;2023-09-08T04:01:47;22.10;59.20
59162;DHT22;44942;48.936;8.260;2023-09-08T04:06:48;22.10;59.20
59162;DHT22;44942;48.936;8.260;2023-09-08T04:11:49;22.10;59.20
59162;DHT22;44942;48.936;8.260;2023-09-08T04:16:49;22.00;59.30
59162;DHT22;44942;48.936;8.260;2023-09-08T04:21:50;21.90;59.30
59162;DHT22;44942;48.936;8.260;2023-09-08T04:26:50;21.80;59.30
59162;DHT22;44942;48.936;8.260;2023-09-08T04:31:50;21.80;59.30
59162;DHT22;44942;48.936;8.260;2023-09-08T04:36:51;21.80;59.30
59162;DHT22;44942;48.936;8.260;2023-09-08T04:41:52;21.80;59.40
59162;DHT22;44942;48.936;8.260;2023-09-08T04:46:53;21.70;59.30
59162;DHT22;44942;48.936;8.260;2023-09-08T04:51:54;21.70;59.40
59162;DHT22;44942;48.936;8.260;2023-09-08T04:56:54;22.10;59.00
59162;DHT22;44942;48.936;8.260;2023-09-08T05:01:56;22.50;58.40
59162;DHT22;44942;48.936;8.260;2023-09-08T05:06:56;22.60;58.00
59162;DHT22;44942;48.936;8.260;2023-09-08T05:11:57;22.70;57.80
59162;DHT22;44942;48.936;8.260;2023-09-08T05:16:59;22.90;57.60
59162;DHT22;44942;48.936;8.260;2023-09-08T05:22:00;23.00;57.50
59162;DHT22;44942;48.936;8.260;2023-09-08T05:27:00;23.00;57.40
59162;DHT22;44942;48.936;8.260;2023-09-08T05:32:01;23.10;57.20
59162;DHT22;44942;48.936;8.260;2023-09-08T05:37:01;23.10;57.10
59162;DHT22;44942;48.936;8.260;2023-09-08T05:42:02;23.10;57.00
59162;DHT22;44942;48.936;8.260;2023-09-08T05:47:03;23.20;57.00
59162;DHT22;44942;48.936;8.260;2023-09-08T05:52:03;23.20;56.80
59162;DHT22;44942;48.936;8.260;2023-09-08T05:57:05;23.20;56.80
59162;DHT22;44942;48.936;8.260;2023-09-08T06:02:06;23.20;56.90
59162;DHT22;44942;48.936;8.260;2023-09-08T06:07:06;23.20;56.80
59162;DHT22;44942;48.936;8.260;2023-09-08T06:12:07;23.20;56.80
59162;DHT22;44942;48.936;8.260;2023-09-08T06:17:07;23.30;56.90
59162;DHT22;44942;48.936;8.260;2023-09-08T06:22:08;23.30;56.80
59162;DHT22;44942;48.936;8.260;2023-09-08T06:27:09;23.40;56.80
59162;DHT22;44942;48.936;8.260;2023-09-08T06:32:09;23.40;56.90
59162;DHT22;44942;48.936;8.260;2023-09-08T06:37:10;23.40;56.90
59162;DHT22;44942;48.936;8.260;2023-09-08T06:42:11;23.40;56.90
59162;DHT22;44942;48.936;8.260;2023-09-08T06:47:11;23.40;57.00
59162;DHT22;44942;48.936;8.260;2023-09-08T06:52:12;23.50;57.10
59162;DHT22;44942;48.936;8.260;2023-09-08T06:57:12;23.50;57.10
59162;DHT22;44942;48.936;8.260;2023-09-08T07:02:13;23.60;57.10
59162;DHT22;44942;48.936;8.260;2023-09-08T07:07:13;23.60;57.10
59162;DHT22;44942;48.936;8.260;2023-09-08T07:12:14;23.60;57.10
59162;DHT22;44942;48.936;8.260;2023-09-08T07:17:14;23.70;57.20
59162;DHT22;44942;48.936;8.260;2023-09-08T07:22:15;23.70;57.20
59162;DHT22;44942;48.936;8.260;2023-09-08T07:27:15;23.70;57.20
59162;DHT22;44942;48.936;8.260;2023-09-08T07:32:16;23.70;57.30
59162;DHT22;44942;48.936;8.260;2023-09-08T07:37:17;23.70;57.50
59162;DHT22;44942;48.936;8.260;2023-09-08T07:42:17;23.70;57.50
59162;DHT22;44942;48.936;8.260;2023-09-08T07:47:18;23.70;57.70
59162;DHT22;44942;48.936;8.260;2023-09-08T07:52:18;23.80;57.50
59162;DHT22;44942;48.936;8.260;2023-09-08T07:57:19;23.90;57.50
59162;DHT22;44942;48.936;8.260;2023-09-08T08:02:19;23.90;57.60
59162;DHT22;44942;48.936;8.260;2023-09-08T08:07:20;23.90;57.50
59162;DHT22;44942;48.936;8.260;2023-09-08T08:12:20;23.90;57.70
59162;DHT22;44942;48.936;8.260;2023-09-08T08:17:21;24.00;57.70
59162;DHT22;44942;48.936;8.260;2023-09-08T08:22:22;24.00;57.60
59162;DHT22;44942;48.936;8.260;2023-09-08T08:27:22;24.10;57.60
59162;DHT22;44942;48.936;8.260;2023-09-08T08:32:23;24.20;57.60
59162;DHT22;44942;48.936;8.260;2023-09-08T08:37:23;24.20;57.50
59162;DHT22;44942;48.936;8.260;2023-09-08T08:42:24;24.20;57.60
59162;DHT22;44942;48.936;8.260;2023-09-08T08:47:31;24.20;57.80
59162;DHT22;44942;48.936;8.260;2023-09-08T08:52:31;24.30;57.80
59162;DHT22;44942;48.936;8.260;2023-09-08T08:57:32;24.40;57.70
59162;DHT22;44942;48.936;8.260;2023-09-08T09:02:32;24.40;57.60
59162;DHT22;44942;48.936;8.260;2023-09-08T09:07:33;24.50;57.60
59162;DHT22;44942;48.936;8.260;2023-09-08T09:12:37;24.60;57.50
59162;DHT22;44942;48.936;8.260;2023-09-08T09:17:38;24.60;57.30
59162;DHT22;44942;48.936;8.260;2023-09-08T09:22:39;24.60;57.20
59162;DHT22;44942;48.936;8.260;2023-09-08T09:27:40;24.60;57.10
59162;DHT22;44942;48.936;8.260;2023-09-08T09:32:42;24.70;57.10
59162;DHT22;44942;48.936;8.260;2023-09-08T09:37:43;24.80;57.10
59162;DHT22;44942;48.936;8.260;2023-09-08T09:42:43;24.80;57.20
59162;DHT22;44942;48.936;8.260;2023-09-08T09:47:44;24.90;57.30
59162;DHT22;44942;48.936;8.260;2023-09-08T09:52:45;24.90;57.30
59162;DHT22;44942;48.936;8.260;2023-09-08T09:57:48;25.00;57.40
59162;DHT22;44942;48.936;8.260;2023-09-08T10:02:49;25.00;57.40
59162;DHT22;44942;48.936;8.260;2023-09-08T10:07:50;25.10;57.50
59162;DHT22;44942;48.936;8.260;2023-09-08T10:12:54;25.20;57.60
59162;DHT22;44942;48.936;8.260;2023-09-08T10:17:55;25.20;57.70
59162;DHT22;44942;48.936;8.260;2023-09-08T10:23:03;25.30;57.70
59162;DHT22;44942;48.936;8.260;2023-09-08T10:28:04;25.30;57.70
59162;DHT22;44942;48.936;8.260;2023-09-08T10:33:06;25.40;58.00
59162;DHT22;44942;48.936;8.260;2023-09-08T10:38:23;25.40;57.90
59162;DHT22;44942;48.936;8.260;2023-09-08T10:43:24;25.50;58.00
59162;DHT22;44942;48.936;8.260;2023-09-08T10:48:24;25.60;58.00
59162;DHT22;44942;48.936;8.260;2023-09-08T10:53:25;25.60;58.10
59162;DHT22;44942;48.936;8.260;2023-09-08T10:58:36;25.70;58.10
59162;DHT22;44942;48.936;8.260;2023-09-08T11:03:43;25.70;58.10
59162;DHT22;44942;48.936;8.260;2023-09-08T11:08:45;25.80;58.10
59162;DHT22;44942;48.936;8.260;2023-09-08T11:13:45;25.90;58.20
59162;DHT22;44942;48.936;8.260;2023-09-08T11:18:47;25.90;58.20
59162;DHT22;44942;48.936;8.260;2023-09-08T11:23:47;26.00;58.30
59162;DHT22;44942;48.936;8.260;2023-09-08T11:28:48;26.10;58.10
59162;DHT22;44942;48.936;8.260;2023-09-08T11:33:49;26.20;58.20
59162;DHT22;44942;48.936;8.260;2023-09-08T11:38:54;26.20;58.10
59162;DHT22;44942;48.936;8.260;2023-09-08T11:43:55;26.30;58.00
59162;DHT22;44942;48.936;8.260;2023-09-08T11:48:55;26.30;58.00
59162;DHT22;44942;48.936;8.260;2023-09-08T11:53:56;26.40;58.00
59162;DHT22;44942;48.936;8.260;2023-09-08T11:58:56;26.50;58.00
59162;DHT22;44942;48.936;8.260;2023-09-08T12:03:57;26.50;57.90
59162;DHT22;44942;48.936;8.260;2023-09-08T12:09:01;26.60;57.80
59162;DHT22;44942;48.936;8.260;2023-09-08T12:14:06;26.70;57.80
59162;DHT22;44942;48.936;8.260;2023-09-08T12:19:08;26.80;57.70
59162;DHT22;44942;48.936;8.260;2023-09-08T12:24:09;26.90;57.80
59162;DHT22;44942;48.936;8.260;2023-09-08T12:29:13;27.00;57.80
59162;DHT22;44942;48.936;8.260;2023-09-08T12:34:14;27.10;57.70
59162;DHT22;44942;48.936;8.260;2023-09-08T12:39:15;27.10;57.40
59162;DHT22;44942;48.936;8.260;2023-09-08T12:44:15;27.20;57.20
59162;DHT22;44942;48.936;8.260;2023-09-08T12:49:16;27.20;57.20
59162;DHT22;44942;48.936;8.260;2023-09-08T12:54:16;27.30;57.10
59162;DHT22;44942;48.936;8.260;2023-09-08T12:59:17;27.40;57.00
59162;DHT22;44942;48.936;8.260;2023-09-08T13:04:18;27.50;57.50
59162;DHT22;44942;48.936;8.260;2023-09-08T13:09:19;27.50;56.70
59162;DHT22;44942;48.936;8.260;2023-09-08T13:14:20;27.50;56.70
59162;DHT22;44942;48.936;8.260;2023-09-08T13:19:21;27.70;56.70
59162;DHT22;44942;48.936;8.260;2023-09-08T13:24:21;27.80;57.20
59162;DHT22;44942;48.936;8.260;2023-09-08T13:34:25;27.90;56.40
59162;DHT22;44942;48.936;8.260;2023-09-08T13:39:25;27.90;56.40
59162;DHT22;44942;48.936;8.260;2023-09-08T13:44:26;28.10;56.30
59162;DHT22;44942;48.936;8.260;2023-09-08T13:49:26;28.10;56.20
59162;DHT22;44942;48.936;8.260;2023-09-08T13:54:27;28.20;56.30
59162;DHT22;44942;48.936;8.260;2023-09-08T13:59:28;28.20;56.20
59162;DHT22;44942;48.936;8.260;2023-09-08T14:04:29;28.20;56.20
59162;DHT22;44942;48.936;8.260;2023-09-08T14:09:29;28.30;56.00
59162;DHT22;44942;48.936;8.260;2023-09-08T14:14:30;28.30;55.90
59162;DHT22;44942;48.936;8.260;2023-09-08T14:19:30;28.40;55.70
59162;DHT22;44942;48.936;8.260;2023-09-08T14:24:31;28.40;55.60
59162;DHT22;44942;48.936;8.260;2023-09-08T14:29:33;28.50;55.50
59162;DHT22;44942;48.936;8.260;2023-09-08T14:34:33;28.60;55.50
59162;DHT22;44942;48.936;8.260;2023-09-08T14:39:34;28.60;55.40
59162;DHT22;44942;48.936;8.260;2023-09-08T14:44:34;28.70;55.40
59162;DHT22;44942;48.936;8.260;2023-09-08T14:49:35;28.70;55.40
59162;DHT22;44942;48.936;8.260;2023-09-08T14:54:35;28.70;55.40
59162;DHT22;44942;48.936;8.260;2023-09-08T14:59:36;28.70;55.30
59162;DHT22;44942;48.936;8.260;2023-09-08T15:04:36;28.70;55.30
59162;DHT22;44942;48.936;8.260;2023-09-08T15:09:37;28.80;55.30
59162;DHT22;44942;48.936;8.260;2023-09-08T15:14:37;28.70;55.30
59162;DHT22;44942;48.936;8.260;2023-09-08T15:19:38;28.70;55.20
59162;DHT22;44942;48.936;8.260;2023-09-08T15:24:39;28.80;55.20
59162;DHT22;44942;48.936;8.260;2023-09-08T15:29:42;28.80;55.10
59162;DHT22;44942;48.936;8.260;2023-09-08T15:34:43;28.80;55.00
59162;DHT22;44942;48.936;8.260;2023-09-08T15:39:47;28.80;54.90
59162;DHT22;44942;48.936;8.260;2023-09-08T15:44:47;28.80;54.80
59162;DHT22;44942;48.936;8.260;2023-09-08T15:49:48;28.90;54.80
59162;DHT22;44942;48.936;8.260;2023-09-08T15:54:48;28.90;54.70
59162;DHT22;44942;48.936;8.260;2023-09-08T15:59:49;28.90;54.60
59162;DHT22;44942;48.936;8.260;2023-09-08T16:04:50;28.90;54.50
59162;DHT22;44942;48.936;8.260;2023-09-08T16:09:50;28.90;54.40
59162;DHT22;44942;48.936;8.260;2023-09-08T16:14:51;28.90;54.40
59162;DHT22;44942;48.936;8.260;2023-09-08T16:19:51;28.80;54.30
59162;DHT22;44942;48.936;8.260;2023-09-08T16:24:52;28.80;54.20
59162;DHT22;44942;48.936;8.260;2023-09-08T16:29:52;28.80;54.20
59162;DHT22;44942;48.936;8.260;2023-09-08T16:34:53;28.80;54.20
59162;DHT22;44942;48.936;8.260;2023-09-08T16:39:53;28.90;54.20
59162;DHT22;44942;48.936;8.260;2023-09-08T16:44:54;28.80;54.10
59162;DHT22;44942;48.936;8.260;2023-09-08T16:49:54;28.80;54.00
59162;DHT22;44942;48.936;8.260;2023-09-08T16:54:55;28.80;54.00
59162;DHT22;44942;48.936;8.260;2023-09-08T16:59:55;28.80;54.00
59162;DHT22;44942;48.936;8.260;2023-09-08T17:04:56;28.80;53.90
59162;DHT22;44942;48.936;8.260;2023-09-08T17:09:56;28.80;53.90
59162;DHT22;44942;48.936;8.260;2023-09-08T17:14:57;28.70;54.00
59162;DHT22;44942;48.936;8.260;2023-09-08T17:19:57;28.80;53.90
59162;DHT22;44942;48.936;8.260;2023-09-08T17:24:59;28.80;54.70
59162;DHT22;44942;48.936;8.260;2023-09-08T17:29:59;28.80;53.90
59162;DHT22;44942;48.936;8.260;2023-09-08T17:35:01;28.80;53.90
59162;DHT22;44942;48.936;8.260;2023-09-08T17:40:02;28.70;53.90
59162;DHT22;44942;48.936;8.260;2023-09-08T17:45:02;28.70;53.90
59162;DHT22;44942;48.936;8.260;2023-09-08T17:50:04;28.70;54.00
59162;DHT22;44942;48.936;8.260;2023-09-08T17:55:05;28.70;54.00
59162;DHT22;44942;48.936;8.260;2023-09-08T18:00:06;28.70;54.10
59162;DHT22;44942;48.936;8.260;2023-09-08T18:05:07;28.60;54.00
59162;DHT22;44942;48.936;8.260;2023-09-08T18:10:07;28.50;54.10
59162;DHT22;44942;48.936;8.260;2023-09-08T18:15:09;28.50;54.40
59162;DHT22;44942;48.936;8.260;2023-09-08T18:20:10;28.40;54.60
59162;DHT22;44942;48.936;8.260;2023-09-08T18:25:10;28.40;54.90
59162;DHT22;44942;48.936;8.260;2023-09-08T18:30:11;28.30;55.30
59162;DHT22;44942;48.936;8.260;2023-09-08T18:35:11;28.30;55.50
59162;DHT22;44942;48.936;8.260;2023-09-08T18:40:12;28.20;55.80
59162;DHT22;44942;48.936;8.260;2023-09-08T18:45:12;28.20;56.00
59162;DHT22;44942;48.936;8.260;2023-09-08T18:50:13;28.10;56.20
59162;DHT22;44942;48.936;8.260;2023-09-08T18:55:13;28.10;56.40
59162;DHT22;44942;48.936;8.260;2023-09-08T19:00:14;28.10;56.40
59162;DHT22;44942;48.936;8.260;2023-09-08T19:05:15;28.00;56.60
59162;DHT22;44942;48.936;8.260;2023-09-08T19:10:15;28.00;56.80
59162;DHT22;44942;48.936;8.260;2023-09-08T19:15:15;27.90;56.90
59162;DHT22;44942;48.936;8.260;2023-09-08T19:20:17;27.90;57.00
59162;DHT22;44942;48.936;8.260;2023-09-08T19:25:18;27.80;57.10
59162;DHT22;44942;48.936;8.260;2023-09-08T19:30:18;27.70;57.40
59162;DHT22;44942;48.936;8.260;2023-09-08T19:35:19;27.60;57.60
59162;DHT22;44942;48.936;8.260;2023-09-08T19:40:19;27.50;57.80
59162;DHT22;44942;48.936;8.260;2023-09-08T19:45:19;27.50;58.00
59162;DHT22;44942;48.936;8.260;2023-09-08T19:50:20;27.40;58.00
59162;DHT22;44942;48.936;8.260;2023-09-08T19:55:20;27.40;58.20
59162;DHT22;44942;48.936;8.260;2023-09-08T20:00:21;27.40;58.20
59162;DHT22;44942;48.936;8.260;2023-09-08T20:05:22;27.30;58.30
59162;DHT22;44942;48.936;8.260;2023-09-08T20:10:22;27.20;58.30
59162;DHT22;44942;48.936;8.260;2023-09-08T20:15:23;27.10;58.50
59162;DHT22;44942;48.936;8.260;2023-09-08T20:20:23;27.00;58.70
59162;DHT22;44942;48.936;8.260;2023-09-08T20:25:25;26.90;58.90
59162;DHT22;44942;48.936;8.260;2023-09-08T20:30:26;26.80;59.00
59162;DHT22;44942;48.936;8.260;2023-09-08T20:35:27;26.70;59.10
59162;DHT22;44942;48.936;8.260;2023-09-08T20:40:27;26.70;59.10
59162;DHT22;44942;48.936;8.260;2023-09-08T20:45:27;26.60;59.20
59162;DHT22;44942;48.936;8.260;2023-09-08T20:50:28;26.60;59.30
59162;DHT22;44942;48.936;8.260;2023-09-08T20:55:29;26.50;59.30
59162;DHT22;44942;48.936;8.260;2023-09-08T21:00:30;26.50;59.40
59162;DHT22;44942;48.936;8.260;2023-09-08T21:05:32;26.40;59.40
59162;DHT22;44942;48.936;8.260;2023-09-08T21:10:33;26.40;59.40
59162;DHT22;44942;48.936;8.260;2023-09-08T21:15:33;26.30;59.40
59162;DHT22;44942;48.936;8.260;2023-09-08T21:20:34;26.30;59.40
59162;DHT22;44942;48.936;8.260;2023-09-08T21:25:35;26.30;59.50
59162;DHT22;44942;48.936;8.260;2023-09-08T21:30:35;26.20;59.40
59162;DHT22;44942;48.936;8.260;2023-09-08T21:35:36;26.10;59.40
59162;DHT22;44942;48.936;8.260;2023-09-08T21:40:39;26.10;59.50
59162;DHT22;44942;48.936;8.260;2023-09-08T21:45:40;26.00;59.30
59162;DHT22;44942;48.936;8.260;2023-09-08T21:50:40;26.00;59.40
59162;DHT22;44942;48.936;8.260;2023-09-08T21:55:41;25.90;59.50
59162;DHT22;44942;48.936;8.260;2023-09-08T22:00:42;25.80;59.50
59162;DHT22;44942;48.936;8.260;2023-09-08T22:05:43;25.80;59.60
59162;DHT22;44942;48.936;8.260;2023-09-08T22:10:43;25.70;59.60
59162;DHT22;44942;48.936;8.260;2023-09-08T22:15:44;25.60;59.50
59162;DHT22;44942;48.936;8.260;2023-09-08T22:20:52;25.60;59.60
59162;DHT22;44942;48.936;8.260;2023-09-08T22:25:52;25.50;59.70
59162;DHT22;44942;48.936;8.260;2023-09-08T22:30:53;25.30;59.70
59162;DHT22;44942;48.936;8.260;2023-09-08T22:35:53;25.30;60.60
59162;DHT22;44942;48.936;8.260;2023-09-08T22:40:54;25.20;59.90
59162;DHT22;44942;48.936;8.260;2023-09-08T22:45:54;25.20;60.00
59162;DHT22;44942;48.936;8.260;2023-09-08T22:50:55;25.10;59.90
59162;DHT22;44942;48.936;8.260;2023-09-08T22:55:55;25.10;59.80
59162;DHT22;44942;48.936;8.260;2023-09-08T23:00:56;25.20;59.90
59162;DHT22;44942;48.936;8.260;2023-09-08T23:05:56;25.10;60.00
59162;DHT22;44942;48.936;8.260;2023-09-08T23:10:57;25.00;59.90
59162;DHT22;44942;48.936;8.260;2023-09-08T23:15:57;24.90;60.00
59162;DHT22;44942;48.936;8.260;2023-09-08T23:20:58;24.90;60.00
59162;DHT22;44942;48.936;8.260;2023-09-08T23:25:58;24.80;60.00
59162;DHT22;44942;48.936;8.260;2023-09-08T23:30:59;24.80;60.00
59162;DHT22;44942;48.936;8.260;2023-09-08T23:35:59;24.70;60.00
59162;DHT22;44942;48.936;8.260;2023-09-08T23:41:00;24.70;60.10
59162;DHT22;44942;48.936;8.260;2023-09-08T23:46:00;24.60;60.00
59162;DHT22;44942;48.936;8.260;2023-09-08T23:51:01;24.60;60.00
59162;DHT22;44942;48.936;8.260;2023-09-08T23:56:02;24.60;60.00
